Time;durP1;ratioP1;P1;durP2;ratioP2;P2;SDS_P1;SDS_P2;PMS_P1;PMS_P2;Temp;Humidity;BMP_temperature;BMP_pressure;BME280_temperature;BME280_humidity;BME280_pressure;Samples;Min_cycle;Max_cycle;Signal;HPM_P1;HPM_P2
2022/07/27 00:01:06;;;;;;;0.38;0.20;;;12.80;99.90;;;;;;5009567;28;20043;-91
2022/07/27 00:03:32;;;;;;;0.03;0.03;;;12.90;99.90;;;;;;5007808;28;20042;-91
2022/07/27 00:05:58;;;;;;;0.03;0.03;;;12.90;99.90;;;;;;5009967;28;20096;-91
2022/07/27 00:08:23;;;;;;;0.00;0.00;;;12.90;99.90;;;;;;5009179;28;20046;-91
2022/07/27 00:10:50;;;;;;;0.00;0.00;;;12.90;99.90;;;;;;5010094;28;20125;-91
2022/07/27 00:13:16;;;;;;;0.30;0.30;;;13.10;99.90;;;;;;5010674;28;20049;-91
2022/07/27 00:15:42;;;;;;;0.00;0.00;;;12.80;99.90;;;;;;4994229;28;20042;-91
2022/07/27 00:18:07;;;;;;;0.00;0.00;;;12.80;99.90;;;;;;5010520;28;20030;-91
2022/07/27 00:20:33;;;;;;;0.00;0.00;;;12.80;99.90;;;;;;5011230;28;20042;-91
2022/07/27 00:22:59;;;;;;;0.00;0.00;;;12.80;99.90;;;;;;5011606;28;20034;-91
2022/07/27 00:25:28;;;;;;;0.00;0.00;;;12.80;99.90;;;;;;4994999;28;20060;-91
2022/07/27 00:27:55;;;;;;;0.00;0.00;;;12.70;99.90;;;;;;5012626;28;20046;-91
2022/07/27 00:30:22;;;;;;;0.60;0.55;;;12.70;99.90;;;;;;4994451;28;20046;-91
2022/07/27 00:32:48;;;;;;;0.00;0.00;;;11.90;99.90;;;;;;4993764;28;20042;-91
2022/07/27 00:35:13;;;;;;;0.00;0.00;;;12.60;99.90;;;;;;4994168;28;20042;-91
2022/07/27 00:37:39;;;;;;;0.00;0.00;;;13.70;99.90;;;;;;5008163;28;20077;-91
2022/07/27 00:40:06;;;;;;;0.00;0.00;;;12.50;99.90;;;;;;4994882;28;20038;-91
2022/07/27 00:42:32;;;;;;;0.20;0.10;;;12.40;99.90;;;;;;5009384;28;20041;-91
2022/07/27 00:44:58;;;;;;;0.10;0.10;;;12.40;99.90;;;;;;4995668;28;20022;-91
2022/07/27 00:47:24;;;;;;;0.00;0.00;;;12.40;99.90;;;;;;4994738;28;20052;-91
2022/07/27 00:49:50;;;;;;;1.55;0.20;;;11.90;99.90;;;;;;5011513;28;20054;-91
2022/07/27 00:52:16;;;;;;;0.00;0.00;;;12.30;99.90;;;;;;5012533;28;20105;-91
2022/07/27 00:54:43;;;;;;;0.30;0.30;;;12.30;99.90;;;;;;5013021;28;20046;-91
2022/07/27 00:57:10;;;;;;;0.10;0.10;;;12.30;99.90;;;;;;5015859;28;20034;-91
2022/07/27 00:59:36;;;;;;;0.00;0.00;;;12.20;99.90;;;;;;5014686;28;20026;-91
2022/07/27 01:02:03;;;;;;;0.00;0.00;;;12.80;99.90;;;;;;5016404;28;20033;-91
2022/07/27 01:04:28;;;;;;;0.00;0.00;;;12.10;99.90;;;;;;5017025;28;20018;-91
2022/07/27 01:06:55;;;;;;;0.00;0.00;;;12.10;99.90;;;;;;4997590;28;20121;-91
2022/07/27 01:12:07;;;;;;;0.00;0.00;;;12.10;99.90;;;;;;5013873;28;20038;-91
2022/07/27 01:14:33;;;;;;;0.08;0.08;;;12.10;99.90;;;;;;5014699;28;20038;-92
2022/07/27 01:16:59;;;;;;;0.00;0.00;;;12.10;99.90;;;;;;5014204;28;20022;-91
2022/07/27 01:19:25;;;;;;;0.00;0.00;;;12.10;99.90;;;;;;4997480;28;20085;-91
2022/07/27 01:21:50;;;;;;;0.00;0.00;;;12.10;99.90;;;;;;5013387;28;20031;-91
2022/07/27 01:24:16;;;;;;;0.10;0.10;;;12.00;99.90;;;;;;4996374;28;20032;-92
2022/07/27 01:26:42;;;;;;;0.00;0.00;;;11.90;99.90;;;;;;5012611;28;20046;-91
2022/07/27 01:29:08;;;;;;;12.57;2.55;;;11.80;99.90;;;;;;5012760;28;20057;-91
2022/07/27 01:31:33;;;;;;;0.00;0.00;;;11.80;99.90;;;;;;4997827;28;20042;-91
2022/07/27 01:33:59;;;;;;;0.00;0.00;;;11.80;99.90;;;;;;5012495;28;20047;-92
2022/07/27 01:36:25;;;;;;;0.00;0.00;;;11.80;99.90;;;;;;5014718;28;20036;-92
2022/07/27 01:38:51;;;;;;;0.00;0.00;;;11.70;99.90;;;;;;4999187;28;20037;-91
2022/07/27 01:41:17;;;;;;;1.08;0.10;;;11.50;99.90;;;;;;5013434;28;20098;-91
2022/07/27 01:43:43;;;;;;;0.00;0.00;;;11.30;99.90;;;;;;5012563;28;20492;-91
2022/07/27 01:46:09;;;;;;;0.00;0.00;;;11.20;99.90;;;;;;5013466;28;20043;-90
2022/07/27 01:48:35;;;;;;;0.00;0.00;;;12.20;99.90;;;;;;5013522;28;20038;-91
2022/07/27 01:51:00;;;;;;;0.45;0.38;;;10.90;99.90;;;;;;5012080;28;20038;-90
2022/07/27 01:53:26;;;;;;;0.00;0.00;;;10.90;99.90;;;;;;5013422;28;20026;-91
2022/07/27 01:55:51;;;;;;;0.22;0.10;;;10.80;99.90;;;;;;5013857;28;20045;-90
2022/07/27 01:58:17;;;;;;;0.17;0.10;;;10.80;99.90;;;;;;5011363;28;20042;-91
2022/07/27 02:00:43;;;;;;;0.00;0.00;;;10.80;99.90;;;;;;5011507;28;20058;-91
2022/07/27 02:03:10;;;;;;;0.00;0.00;;;11.20;99.90;;;;;;5015498;28;20047;-90
2022/07/27 02:05:37;;;;;;;0.00;0.00;;;11.00;99.90;;;;;;5017163;28;20031;-91
2022/07/27 02:08:04;;;;;;;0.00;0.00;;;11.10;99.90;;;;;;5019396;28;20046;-91
2022/07/27 02:10:30;;;;;;;0.00;0.00;;;11.00;99.90;;;;;;5017071;28;20035;-91
2022/07/27 02:12:56;;;;;;;0.45;0.35;;;11.00;99.90;;;;;;5017558;28;20030;-92
2022/07/27 02:15:24;;;;;;;0.00;0.00;;;11.70;99.90;;;;;;5017690;28;20041;-91
2022/07/27 02:17:50;;;;;;;0.70;0.55;;;11.60;99.90;;;;;;5011436;28;20039;-89
2022/07/27 02:20:18;;;;;;;0.08;0.05;;;10.90;99.90;;;;;;5013539;28;20053;-91
2022/07/27 02:22:44;;;;;;;0.08;0.08;;;12.10;99.90;;;;;;5012673;28;20046;-91
2022/07/27 02:25:11;;;;;;;0.00;0.00;;;10.80;99.90;;;;;;5013721;28;20041;-91
2022/07/27 02:27:38;;;;;;;0.00;0.00;;;10.70;99.90;;;;;;5010611;28;20043;-91
2022/07/27 02:30:05;;;;;;;0.00;0.00;;;10.60;99.90;;;;;;5014969;28;20096;-91
2022/07/27 02:32:31;;;;;;;0.00;0.00;;;10.50;99.90;;;;;;5002450;28;20050;-91
2022/07/27 02:34:56;;;;;;;0.00;0.00;;;11.50;99.90;;;;;;5018901;28;20030;-91
2022/07/27 02:37:22;;;;;;;0.00;0.00;;;10.30;99.90;;;;;;5002461;28;20089;-91
2022/07/27 02:39:48;;;;;;;0.08;0.00;;;10.20;99.90;;;;;;5018878;28;20034;-92
2022/07/27 02:42:14;;;;;;;0.00;0.00;;;10.10;99.90;;;;;;5017616;28;20045;-91
2022/07/27 02:44:39;;;;;;;0.00;0.00;;;10.10;99.90;;;;;;5018707;28;20083;-91
2022/07/27 02:47:05;;;;;;;0.00;0.00;;;10.00;99.90;;;;;;5019449;28;20053;-91
2022/07/27 02:49:31;;;;;;;0.00;0.00;;;10.00;99.90;;;;;;5019091;28;20046;-91
2022/07/27 02:51:56;;;;;;;0.00;0.00;;;9.90;99.90;;;;;;5019355;28;20026;-91
2022/07/27 02:54:24;;;;;;;0.00;0.00;;;9.90;99.90;;;;;;5018903;28;20077;-91
2022/07/27 02:56:54;;;;;;;0.00;0.00;;;9.80;99.90;;;;;;5002406;28;20086;-91
2022/07/27 02:59:21;;;;;;;0.00;0.00;;;9.80;99.90;;;;;;5003002;28;20484;-91
2022/07/27 03:01:47;;;;;;;0.00;0.00;;;10.20;99.90;;;;;;5018037;28;20042;-91
2022/07/27 03:04:13;;;;;;;0.00;0.00;;;9.80;99.90;;;;;;5002145;28;20022;-91
2022/07/27 03:06:40;;;;;;;0.00;0.00;;;9.90;99.90;;;;;;5019057;28;20031;-91
2022/07/27 03:09:06;;;;;;;0.05;0.05;;;9.90;99.90;;;;;;5018813;28;20030;-91
2022/07/27 03:11:32;;;;;;;0.00;0.00;;;10.10;99.90;;;;;;5019656;28;20078;-91
2022/07/27 03:13:57;;;;;;;0.00;0.00;;;10.20;99.90;;;;;;5018741;28;20062;-91
2022/07/27 03:16:23;;;;;;;0.00;0.00;;;10.30;99.90;;;;;;5018192;28;20027;-91
2022/07/27 03:18:49;;;;;;;0.00;0.00;;;10.40;99.90;;;;;;5018945;28;20038;-91
2022/07/27 03:21:14;;;;;;;0.00;0.00;;;10.40;99.90;;;;;;5018967;28;20018;-91
2022/07/27 03:23:40;;;;;;;0.00;0.00;;;11.20;99.90;;;;;;5018527;28;20053;-91
2022/07/27 03:26:06;;;;;;;0.10;0.10;;;10.60;99.90;;;;;;5018690;28;20014;-91
2022/07/27 03:28:31;;;;;;;0.00;0.00;;;10.60;99.90;;;;;;5018477;28;20026;-91
2022/07/27 03:30:57;;;;;;;0.00;0.00;;;10.70;99.90;;;;;;5019625;28;20054;-91
2022/07/27 03:33:25;;;;;;;0.25;0.20;;;11.50;99.90;;;;;;5002786;28;20049;-91
2022/07/27 03:35:51;;;;;;;0.00;0.00;;;11.40;99.90;;;;;;5018788;28;20153;-91
2022/07/27 03:38:16;;;;;;;0.00;0.00;;;10.90;99.90;;;;;;5002477;28;20412;-91
2022/07/27 03:40:42;;;;;;;0.00;0.00;;;11.00;99.90;;;;;;5018724;28;20029;-91
2022/07/27 03:43:08;;;;;;;0.00;0.00;;;11.00;99.90;;;;;;5018562;28;20046;-91
2022/07/27 03:45:34;;;;;;;0.00;0.00;;;11.10;99.90;;;;;;5018960;28;20034;-92
2022/07/27 03:47:59;;;;;;;0.00;0.00;;;11.20;99.90;;;;;;5017729;28;20031;-92
2022/07/27 03:50:25;;;;;;;0.00;0.00;;;11.90;99.90;;;;;;5017815;28;20046;-91
2022/07/27 03:52:51;;;;;;;4.40;0.55;;;11.30;99.90;;;;;;5017947;28;20065;-91
2022/07/27 03:55:18;;;;;;;0.00;0.00;;;11.40;99.90;;;;;;5017984;28;20027;-91
2022/07/27 03:57:44;;;;;;;0.00;0.00;;;11.40;99.90;;;;;;5018707;28;20030;-91
2022/07/27 04:00:11;;;;;;;0.10;0.10;;;11.50;99.90;;;;;;5018749;28;20085;-91
2022/07/27 04:02:37;;;;;;;0.00;0.00;;;11.50;99.90;;;;;;5001780;28;20139;-91
2022/07/27 04:05:03;;;;;;;0.00;0.00;;;11.50;99.90;;;;;;5017616;28;20029;-91
2022/07/27 04:07:29;;;;;;;0.03;0.03;;;11.50;99.90;;;;;;5001767;28;20085;-91
2022/07/27 04:09:54;;;;;;;0.00;0.00;;;11.50;99.90;;;;;;5017944;28;20038;-91
2022/07/27 04:12:20;;;;;;;0.57;0.30;;;12.80;99.90;;;;;;5018080;28;20033;-91
2022/07/27 04:14:45;;;;;;;0.00;0.00;;;11.60;99.90;;;;;;5001837;28;20034;-91
2022/07/27 04:17:11;;;;;;;0.08;0.08;;;11.60;99.90;;;;;;5018564;28;20041;-91
2022/07/27 04:19:37;;;;;;;0.00;0.00;;;12.10;99.90;;;;;;5016651;28;20053;-91
2022/07/27 04:22:02;;;;;;;1.35;0.55;;;11.90;99.90;;;;;;5001312;28;20038;-91
2022/07/27 04:24:28;;;;;;;0.20;0.20;;;12.70;99.90;;;;;;5001283;28;20022;-91
2022/07/27 04:26:54;;;;;;;0.00;0.00;;;11.80;99.90;;;;;;5001117;28;20042;-91
2022/07/27 04:29:20;;;;;;;2.50;0.35;;;11.90;99.90;;;;;;5017377;28;20019;-91
2022/07/27 04:31:46;;;;;;;0.25;0.20;;;11.90;99.90;;;;;;5000881;28;20054;-91
2022/07/27 04:34:11;;;;;;;0.00;0.00;;;12.00;99.90;;;;;;5018317;28;20032;-91
2022/07/27 04:36:38;;;;;;;0.00;0.00;;;12.00;99.90;;;;;;5017567;28;20040;-91
2022/07/27 04:39:04;;;;;;;0.00;0.00;;;12.20;99.90;;;;;;5001001;28;20048;-91
2022/07/27 04:41:30;;;;;;;0.00;0.00;;;13.30;99.90;;;;;;5018040;28;20038;-91
2022/07/27 04:43:56;;;;;;;1.48;1.38;;;12.20;99.90;;;;;;5001252;28;20026;-91
2022/07/27 04:46:21;;;;;;;0.55;0.55;;;12.30;99.90;;;;;;5000798;28;20030;-91
2022/07/27 04:48:47;;;;;;;0.00;0.00;;;12.30;99.90;;;;;;5000987;28;20045;-91
2022/07/27 04:51:14;;;;;;;0.10;0.10;;;12.30;99.90;;;;;;5001386;28;20034;-91
2022/07/27 04:53:40;;;;;;;0.10;0.10;;;12.40;99.90;;;;;;5001262;28;20109;-91
2022/07/27 04:56:07;;;;;;;0.00;0.00;;;12.60;99.90;;;;;;5001204;28;20030;-91
2022/07/27 04:58:32;;;;;;;0.15;0.15;;;12.70;99.90;;;;;;5017765;28;20105;-91
2022/07/27 05:00:58;;;;;;;1.17;0.73;;;12.90;99.90;;;;;;5001083;28;20019;-91
2022/07/27 05:03:24;;;;;;;0.00;0.00;;;13.20;99.90;;;;;;5017936;28;20030;-91
2022/07/27 05:05:49;;;;;;;0.00;0.00;;;13.60;99.90;;;;;;5000847;28;20031;-91
2022/07/27 05:08:15;;;;;;;0.00;0.00;;;13.90;99.90;;;;;;5015777;28;20034;-91
2022/07/27 05:10:41;;;;;;;0.17;0.17;;;13.90;99.90;;;;;;5016191;28;20027;-90
2022/07/27 05:13:06;;;;;;;0.00;0.00;;;13.90;99.90;;;;;;4999904;28;20030;-91
2022/07/27 05:15:32;;;;;;;0.00;0.00;;;13.90;99.90;;;;;;5016595;28;20050;-91
2022/07/27 05:17:58;;;;;;;0.00;0.00;;;13.90;99.90;;;;;;4999860;28;20046;-91
2022/07/27 05:20:24;;;;;;;0.10;0.10;;;14.00;99.90;;;;;;5015079;28;20026;-91
2022/07/27 05:22:50;;;;;;;2.20;0.45;;;14.00;99.90;;;;;;4999420;28;20037;-91
2022/07/27 05:25:15;;;;;;;0.00;0.00;;;14.00;99.90;;;;;;5015279;28;20026;-91
2022/07/27 05:27:41;;;;;;;0.00;0.00;;;14.00;99.90;;;;;;5015881;28;20089;-92
2022/07/27 05:30:12;;;;;;;0.00;0.00;;;14.20;99.90;;;;;;5015781;28;20061;-91
2022/07/27 05:32:38;;;;;;;0.00;0.00;;;14.10;99.90;;;;;;5015946;28;20049;-91
2022/07/27 05:35:04;;;;;;;0.20;0.10;;;14.00;99.90;;;;;;4997787;28;20092;-91
2022/07/27 05:37:30;;;;;;;0.00;0.00;;;14.10;99.90;;;;;;5014572;28;20054;-91
2022/07/27 05:39:55;;;;;;;0.00;0.00;;;14.10;99.90;;;;;;5019379;28;20057;-91
2022/07/27 05:42:21;;;;;;;0.10;0.10;;;14.70;99.90;;;;;;5003736;28;20030;-91
2022/07/27 05:44:47;;;;;;;0.40;0.40;;;13.90;99.90;;;;;;5003735;28;20022;-90
2022/07/27 05:47:12;;;;;;;3.65;1.17;;;13.90;99.90;;;;;;5003453;28;20101;-90
2022/07/27 05:49:38;;;;;;;0.47;0.17;;;13.90;99.90;;;;;;5019329;28;20046;-92
2022/07/27 05:52:04;;;;;;;0.10;0.10;;;14.00;99.90;;;;;;4993010;28;20141;-89
2022/07/27 05:54:29;;;;;;;0.00;0.00;;;14.10;99.90;;;;;;5001494;28;20050;-89
2022/07/27 05:56:55;;;;;;;0.38;0.20;;;14.20;99.90;;;;;;5000715;28;20046;-89
2022/07/27 05:59:20;;;;;;;0.55;0.30;;;14.70;99.90;;;;;;5001552;28;20522;-89
2022/07/27 06:01:46;;;;;;;0.10;0.10;;;14.40;99.90;;;;;;4999964;28;20042;-89
2022/07/27 06:04:11;;;;;;;0.17;0.15;;;14.40;99.90;;;;;;4999508;28;20050;-89
2022/07/27 06:09:21;;;;;;;0.00;0.00;;;14.30;99.90;;;;;;5002028;28;20057;-91
2022/07/27 06:11:47;;;;;;;0.00;0.00;;;14.20;99.90;;;;;;4995240;28;20106;-92
2022/07/27 06:14:12;;;;;;;0.00;0.00;;;14.10;99.90;;;;;;5007807;28;20044;-91
2022/07/27 06:16:38;;;;;;;0.22;0.22;;;13.90;99.90;;;;;;5013793;28;20035;-91
2022/07/27 06:19:04;;;;;;;0.03;0.03;;;13.70;99.90;;;;;;5017351;28;20046;-91
2022/07/27 06:21:30;;;;;;;0.00;0.00;;;13.70;99.90;;;;;;5016908;28;20043;-91
2022/07/27 06:23:56;;;;;;;0.00;0.00;;;13.60;99.90;;;;;;5016194;28;20094;-91
2022/07/27 06:26:22;;;;;;;0.13;0.10;;;13.70;99.90;;;;;;5018372;28;20034;-91
2022/07/27 06:28:48;;;;;;;0.20;0.20;;;13.70;99.90;;;;;;5019543;28;20026;-90
2022/07/27 06:31:14;;;;;;;0.05;0.05;;;13.80;99.90;;;;;;5002708;28;20030;-90
2022/07/27 06:33:40;;;;;;;1.67;0.95;;;13.90;99.90;;;;;;5030106;22;20053;-75
2022/07/27 06:36:07;;;;;;;0.00;0.00;;;14.00;99.90;;;;;;5012076;28;20112;-76
2022/07/27 06:38:33;;;;;;;0.00;0.00;;;14.20;99.90;;;;;;5000844;28;20042;-75
2022/07/27 06:40:59;;;;;;;0.43;0.43;;;14.30;99.90;;;;;;5006660;28;20053;-75
2022/07/27 06:43:29;;;;;;;0.38;0.38;;;14.40;99.90;;;;;;4994991;28;20413;-75
2022/07/27 06:45:57;;;;;;;0.00;0.00;;;14.60;99.90;;;;;;4994883;28;20050;-75
2022/07/27 06:48:22;;;;;;;0.10;0.10;;;14.60;99.90;;;;;;5001159;28;20052;-75
2022/07/27 06:50:50;;;;;;;0.00;0.00;;;14.80;99.90;;;;;;5003577;28;20030;-75
2022/07/27 06:53:16;;;;;;;0.43;0.43;;;14.90;99.90;;;;;;5007664;28;20046;-75
2022/07/27 06:55:41;;;;;;;0.20;0.10;;;15.00;99.90;;;;;;5005894;28;20042;-75
2022/07/27 06:58:07;;;;;;;0.32;0.17;;;15.20;99.90;;;;;;4997528;28;20102;-75
2022/07/27 07:00:33;;;;;;;0.10;0.10;;;15.70;99.90;;;;;;4988644;28;20109;-75
2022/07/27 07:03:04;;;;;;;0.00;0.00;;;16.00;99.90;;;;;;4996913;28;20578;-75
2022/07/27 07:05:31;;;;;;;0.10;0.10;;;16.10;99.90;;;;;;4996822;28;20050;-74
2022/07/27 07:07:57;;;;;;;21.92;0.95;;;16.20;99.90;;;;;;4996567;28;20053;-74
2022/07/27 07:10:23;;;;;;;0.30;0.20;;;16.30;99.90;;;;;;4995592;28;20064;-74
2022/07/27 07:12:54;;;;;;;0.00;0.00;;;16.90;99.90;;;;;;4997296;28;20464;-74
2022/07/27 07:15:22;;;;;;;0.00;0.00;;;18.20;99.90;;;;;;4997990;28;20078;-75
2022/07/27 07:17:48;;;;;;;0.38;0.38;;;19.20;99.90;;;;;;4996544;28;20046;-74
2022/07/27 07:20:13;;;;;;;0.00;0.00;;;20.20;99.90;;;;;;4996790;28;20342;-74
2022/07/27 07:22:39;;;;;;;0.00;0.00;;;21.00;99.90;;;;;;4996704;28;20046;-73
2022/07/27 07:25:04;;;;;;;1.08;0.15;;;21.40;99.90;;;;;;4996745;28;20127;-75
2022/07/27 07:27:30;;;;;;;0.08;0.08;;;21.70;99.90;;;;;;4995436;28;20046;-75
2022/07/27 07:29:56;;;;;;;0.20;0.13;;;22.10;99.90;;;;;;4995882;28;20493;-75
2022/07/27 07:32:23;;;;;;;0.45;0.40;;;22.40;99.90;;;;;;4994734;28;20105;-75
2022/07/27 07:34:49;;;;;;;0.00;0.00;;;23.20;99.90;;;;;;4996048;28;20058;-75
2022/07/27 07:37:16;;;;;;;0.00;0.00;;;22.90;83.10;;;;;;4994659;28;20046;-75
2022/07/27 07:39:41;;;;;;;8.68;0.52;;;23.40;99.50;;;;;;4995453;28;20053;-75
2022/07/27 07:42:07;;;;;;;0.00;0.00;;;23.50;78.80;;;;;;4988844;28;20042;-75
2022/07/27 07:44:33;;;;;;;0.55;0.43;;;24.00;93.40;;;;;;4993440;28;20149;-75
2022/07/27 07:46:59;;;;;;;0.10;0.10;;;24.30;55.30;;;;;;4983045;28;20117;-75
2022/07/27 07:49:25;;;;;;;0.20;0.10;;;24.20;44.40;;;;;;4990439;28;20039;-75
2022/07/27 07:51:51;;;;;;;0.40;0.35;;;24.30;33.00;;;;;;4995334;28;20056;-74
2022/07/27 07:54:16;;;;;;;0.25;0.08;;;24.70;28.20;;;;;;4996435;28;20129;-74
2022/07/27 07:56:42;;;;;;;0.00;0.00;;;24.70;27.50;;;;;;4992798;28;20550;-75
2022/07/27 07:59:07;;;;;;;0.00;0.00;;;23.90;43.00;;;;;;4994747;28;20038;-75
2022/07/27 08:01:33;;;;;;;0.20;0.20;;;24.20;45.80;;;;;;4993635;28;20504;-74
2022/07/27 08:03:59;;;;;;;0.08;0.05;;;24.80;39.70;;;;;;4994544;28;20062;-75
2022/07/27 08:06:24;;;;;;;0.10;0.08;;;24.90;38.20;;;;;;4995108;28;20082;-74
2022/07/27 08:08:50;;;;;;;0.30;0.25;;;24.60;20.00;;;;;;4994372;28;20050;-75
2022/07/27 08:11:15;;;;;;;0.00;0.00;;;22.70;36.70;;;;;;4994804;28;20464;-74
2022/07/27 08:13:41;;;;;;;0.00;0.00;;;21.10;70.30;;;;;;4993531;28;20042;-74
2022/07/27 08:16:06;;;;;;;0.00;0.00;;;19.80;92.60;;;;;;4992667;28;20076;-75
2022/07/27 08:18:32;;;;;;;0.75;0.50;;;18.70;99.90;;;;;;4992199;28;20043;-74
2022/07/27 08:20:58;;;;;;;0.00;0.00;;;17.90;99.90;;;;;;4992606;28;20046;-74
2022/07/27 08:23:25;;;;;;;0.13;0.10;;;17.50;99.90;;;;;;4987118;28;20112;-74
2022/07/27 08:25:51;;;;;;;0.00;0.00;;;17.20;99.90;;;;;;4974273;28;20090;-74
2022/07/27 08:28:17;;;;;;;0.00;0.00;;;16.70;99.90;;;;;;4974281;28;20520;-74
2022/07/27 08:30:42;;;;;;;1.38;0.80;;;16.40;99.90;;;;;;4992331;28;20065;-74
2022/07/27 08:33:08;;;;;;;0.17;0.10;;;16.40;99.90;;;;;;4990959;28;20050;-74
2022/07/27 08:35:34;;;;;;;0.00;0.00;;;16.40;99.90;;;;;;4992749;28;20438;-74
2022/07/27 08:38:01;;;;;;;4.30;0.45;;;16.70;99.90;;;;;;4991074;28;20046;-74
2022/07/27 08:40:27;;;;;;;0.00;0.00;;;17.00;99.90;;;;;;4992058;28;20049;-74
2022/07/27 08:42:54;;;;;;;0.10;0.08;;;17.10;99.90;;;;;;4973980;28;20052;-73
2022/07/27 08:45:20;;;;;;;0.60;0.52;;;17.00;99.90;;;;;;4971697;28;20133;-74
2022/07/27 08:47:46;;;;;;;0.00;0.00;;;17.30;99.90;;;;;;4991160;28;20046;-74
2022/07/27 08:50:22;;;;;;;0.00;0.00;;;17.50;99.90;;;;;;4991307;28;20057;-73
2022/07/27 08:53:02;;;;;;;0.00;0.00;;;17.70;99.90;;;;;;4980757;28;20060;-74
2022/07/27 08:55:32;;;;;;;0.00;0.00;;;17.60;99.90;;;;;;4991211;28;20042;-74
2022/07/27 08:57:58;;;;;;;0.00;0.00;;;18.10;99.90;;;;;;4990529;28;20046;-74
2022/07/27 09:00:25;;;;;;;0.00;0.00;;;18.10;99.90;;;;;;4990885;28;20061;-74
2022/07/27 09:02:51;;;;;;;0.35;0.20;;;18.40;99.90;;;;;;4990460;28;20129;-74
2022/07/27 09:05:17;;;;;;;0.05;0.03;;;18.90;99.90;;;;;;4987991;28;20149;-74
2022/07/27 09:07:42;;;;;;;0.22;0.10;;;19.30;99.90;;;;;;4989893;28;20050;-74
2022/07/27 09:10:09;;;;;;;0.00;0.00;;;19.70;99.90;;;;;;4982824;28;20042;-74
2022/07/27 09:12:35;;;;;;;0.50;0.30;;;20.00;99.90;;;;;;4990825;28;20046;-74
2022/07/27 09:15:13;;;;;;;0.00;0.00;;;20.30;98.40;;;;;;4986567;28;20133;-74
2022/07/27 09:17:40;;;;;;;0.10;0.08;;;20.40;94.00;;;;;;4987107;28;20078;-74
2022/07/27 09:20:10;;;;;;;0.25;0.10;;;20.40;90.00;;;;;;4975466;28;20480;-74
2022/07/27 09:22:53;;;;;;;0.00;0.00;;;21.20;89.40;;;;;;4990090;28;20050;-74
2022/07/27 09:25:24;;;;;;;0.08;0.03;;;21.50;72.20;;;;;;4994087;28;20085;-74
2022/07/27 09:27:56;;;;;;;0.40;0.40;;;21.50;56.20;;;;;;4993837;28;20466;-74
2022/07/27 09:30:23;;;;;;;0.38;0.20;;;21.70;43.10;;;;;;4993271;28;20061;-74
2022/07/27 09:32:57;;;;;;;0.00;0.00;;;21.40;45.50;;;;;;4994540;28;20077;-74
2022/07/27 09:35:33;;;;;;;0.00;0.00;;;21.50;46.80;;;;;;4993626;28;20057;-74
2022/07/27 09:38:18;;;;;;;0.00;0.00;;;21.70;51.00;;;;;;4994088;28;20097;-74
2022/07/27 09:40:45;;;;;;;0.28;0.20;;;21.80;42.30;;;;;;4989205;28;20046;-73
2022/07/27 09:43:12;;;;;;;0.17;0.17;;;22.30;45.00;;;;;;4980291;28;20046;-74
2022/07/27 09:45:42;;;;;;;0.28;0.10;;;22.70;42.90;;;;;;4994249;28;20101;-74
2022/07/27 09:48:19;;;;;;;2.03;0.28;;;22.50;28.60;;;;;;4993826;28;20054;-74
2022/07/27 09:51:14;;;;;;;0.10;0.10;;;22.40;28.90;;;;;;4993642;28;20066;-74
2022/07/27 09:53:40;;;;;;;0.10;0.03;;;22.90;33.40;;;;;;4985446;28;20081;-74
2022/07/27 09:56:12;;;;;;;0.00;0.00;;;23.60;27.70;;;;;;4993739;28;20043;-74
2022/07/27 09:58:48;;;;;;;0.00;0.00;;;24.40;23.40;;;;;;4992048;28;20043;-74
2022/07/27 10:01:20;;;;;;;1.67;0.45;;;24.30;17.60;;;;;;4993324;28;20134;-74
2022/07/27 10:03:48;;;;;;;0.45;0.40;;;24.70;16.00;;;;;;4993158;28;20054;-74
2022/07/27 10:06:15;;;;;;;0.05;0.05;;;24.30;8.90;;;;;;4993655;28;20070;-75
2022/07/27 10:08:45;;;;;;;0.00;0.00;;;24.10;10.30;;;;;;4993979;28;20042;-74
2022/07/27 10:11:12;;;;;;;3.10;0.70;;;23.90;4.70;;;;;;4994428;28;20077;-74
2022/07/27 10:13:38;;;;;;;0.00;0.00;;;23.10;10.00;;;;;;4993767;28;20054;-74
2022/07/27 10:16:10;;;;;;;0.00;0.00;;;23.20;8.40;;;;;;4993722;28;20090;-74
2022/07/27 10:18:58;;;;;;;0.30;0.20;;;23.30;8.70;;;;;;4993567;28;20050;-74
2022/07/27 10:21:24;;;;;;;0.22;0.22;;;22.80;12.50;;;;;;4994019;28;20046;-74
2022/07/27 10:24:05;;;;;;;0.00;0.00;;;22.80;11.30;;;;;;4994078;28;20122;-74
2022/07/27 10:26:42;;;;;;;0.00;0.00;;;22.80;11.10;;;;;;4996495;28;20046;-74
2022/07/27 10:29:13;;;;;;;0.00;0.00;;;22.60;8.80;;;;;;4996716;28;20068;-74
2022/07/27 10:31:59;;;;;;;0.00;0.00;;;23.00;7.90;;;;;;4996984;28;20494;-74
2022/07/27 10:34:34;;;;;;;0.00;0.00;;;23.30;6.40;;;;;;4996468;28;20061;-74
2022/07/27 10:37:10;;;;;;;0.05;0.05;;;23.30;2.30;;;;;;4996927;28;20073;-74
2022/07/27 10:39:38;;;;;;;0.25;0.22;;;23.50;3.40;;;;;;4996939;28;20066;-74
2022/07/27 10:42:27;;;;;;;0.00;0.00;;;24.10;5.80;;;;;;4997392;28;20050;-74
2022/07/27 10:44:56;;;;;;;0.13;0.10;;;23.60;2.80;;;;;;4997134;28;20054;-74
2022/07/27 10:47:39;;;;;;;0.00;0.00;;;23.40;2.10;;;;;;4996892;28;20414;-75
2022/07/27 10:50:19;;;;;;;0.75;0.32;;;23.20;4.00;;;;;;4996858;28;20038;-74
2022/07/27 10:52:51;;;;;;;0.38;0.35;;;23.50;6.30;;;;;;4995077;28;20081;-74
2022/07/27 10:55:30;;;;;;;0.03;0.03;;;23.60;3.40;;;;;;4996587;28;20046;-74
2022/07/27 10:57:56;;;;;;;1.08;0.50;;;23.60;1.00;;;;;;4996136;28;20049;-74
2022/07/27 11:00:48;;;;;;;0.00;0.00;;;23.40;2.10;;;;;;4996765;28;20035;-74
2022/07/27 11:03:25;;;;;;;0.10;0.10;;;23.20;1.00;;;;;;4995929;28;20057;-74
2022/07/27 11:06:07;;;;;;;0.52;0.08;;;23.10;1.00;;;;;;4996375;28;20411;-74
2022/07/27 11:08:41;;;;;;;0.08;0.05;;;22.80;1.90;;;;;;4995185;28;20050;-74
2022/07/27 11:11:09;;;;;;;0.10;0.10;;;22.80;1.20;;;;;;4996284;28;20510;-74
2022/07/27 11:13:35;;;;;;;0.77;0.45;;;21.90;1.20;;;;;;4996275;28;20508;-74
2022/07/27 11:16:06;;;;;;;0.10;0.10;;;21.30;2.10;;;;;;4996805;28;20046;-74
2022/07/27 11:18:35;;;;;;;0.00;0.00;;;21.30;6.90;;;;;;4996325;28;20470;-74
2022/07/27 11:21:23;;;;;;;0.10;0.10;;;21.90;6.40;;;;;;4996470;28;20043;-74
2022/07/27 11:23:54;;;;;;;0.10;0.10;;;22.20;3.00;;;;;;4996126;28;20046;-74
2022/07/27 11:26:22;;;;;;;0.30;0.20;;;22.10;1.00;;;;;;4996018;28;20054;-74
2022/07/27 11:28:48;;;;;;;0.00;0.00;;;22.60;5.30;;;;;;4995859;28;20583;-74
2022/07/27 11:31:14;;;;;;;0.00;0.00;;;22.90;1.00;;;;;;4995480;28;20101;-74
2022/07/27 11:33:53;;;;;;;0.20;0.03;;;22.80;1.20;;;;;;4995369;28;20116;-74
2022/07/27 11:36:19;;;;;;;0.00;0.00;;;22.80;1.00;;;;;;4995137;28;20050;-74
2022/07/27 11:38:53;;;;;;;0.00;0.00;;;23.50;1.00;;;;;;4995488;28;20057;-74
2022/07/27 11:41:29;;;;;;;0.00;0.00;;;23.60;1.00;;;;;;4995652;28;20081;-74
2022/07/27 11:44:00;;;;;;;0.13;0.10;;;23.70;1.00;;;;;;4995930;28;20568;-74
2022/07/27 11:46:31;;;;;;;0.85;0.20;;;25.20;1.00;;;;;;4995855;28;20046;-74
2022/07/27 11:48:58;;;;;;;0.00;0.00;;;24.80;1.00;;;;;;4995695;28;20043;-74
2022/07/27 11:51:24;;;;;;;0.05;0.05;;;24.20;1.00;;;;;;4995168;28;20054;-74
2022/07/27 11:54:02;;;;;;;0.00;0.00;;;23.30;1.00;;;;;;4994786;28;20050;-74
2022/07/27 11:56:33;;;;;;;0.00;0.00;;;22.50;1.00;;;;;;4995336;28;20055;-75
2022/07/27 11:59:05;;;;;;;0.00;0.00;;;21.70;2.50;;;;;;4993911;28;20408;-74
2022/07/27 12:01:33;;;;;;;0.00;0.00;;;21.40;5.30;;;;;;4995434;28;20433;-74
2022/07/27 12:04:14;;;;;;;0.00;0.00;;;21.60;8.50;;;;;;4994582;28;20130;-74
2022/07/27 12:06:43;;;;;;;0.43;0.30;;;23.30;11.00;;;;;;4994703;28;20513;-75
2022/07/27 12:09:12;;;;;;;0.00;0.00;;;25.20;1.70;;;;;;4994670;28;20046;-75
2022/07/27 12:11:58;;;;;;;0.03;0.03;;;25.00;1.00;;;;;;4994600;28;20038;-74
2022/07/27 12:14:35;;;;;;;0.00;0.00;;;25.20;1.00;;;;;;4995210;28;20075;-75
2022/07/27 12:17:29;;;;;;;0.00;0.00;;;23.30;1.00;;;;;;4993705;28;20050;-74
2022/07/27 12:20:13;;;;;;;0.00;0.00;;;23.00;1.00;;;;;;4994544;28;20049;-74
2022/07/27 12:22:42;;;;;;;0.52;0.13;;;23.20;1.00;;;;;;4994389;28;20092;-74
2022/07/27 12:25:17;;;;;;;0.00;0.00;;;23.00;1.30;;;;;;4994295;28;20042;-74
2022/07/27 12:28:11;;;;;;;0.10;0.10;;;23.00;1.00;;;;;;4994726;28;20129;-74
2022/07/27 12:30:50;;;;;;;0.10;0.10;;;23.20;1.00;;;;;;4993137;28;20050;-74
2022/07/27 12:33:36;;;;;;;0.00;0.00;;;24.10;1.00;;;;;;4994027;28;20050;-74
2022/07/27 12:36:07;;;;;;;5.40;0.28;;;26.10;1.00;;;;;;4994254;28;20129;-75
2022/07/27 12:38:38;;;;;;;0.63;0.30;;;26.80;1.00;;;;;;4994356;28;20038;-74
2022/07/27 12:41:04;;;;;;;1.48;0.65;;;27.30;1.00;;;;;;4994329;28;20071;-75
2022/07/27 12:43:30;;;;;;;0.00;0.00;;;26.70;1.00;;;;;;4994462;28;20062;-75
2022/07/27 12:45:56;;;;;;;0.05;0.05;;;25.90;1.00;;;;;;4994155;28;20400;-74
2022/07/27 12:48:26;;;;;;;0.40;0.20;;;24.30;1.00;;;;;;4994350;28;20117;-75
2022/07/27 12:51:01;;;;;;;0.05;0.03;;;23.90;1.00;;;;;;4994575;28;20057;-74
2022/07/27 12:53:28;;;;;;;0.13;0.10;;;22.80;1.00;;;;;;4994278;28;20068;-74
2022/07/27 12:55:55;;;;;;;0.43;0.13;;;22.50;1.00;;;;;;4994393;28;20050;-74
2022/07/27 12:58:21;;;;;;;0.32;0.22;;;21.90;2.70;;;;;;4992691;28;20542;-74